Time;durP1;ratioP1;P1;durP2;ratioP2;P2;SDS_P1;SDS_P2;PMS_P1;PMS_P2;Temp;Humidity;BMP_temperature;BMP_pressure;BME280_temperature;BME280_humidity;BME280_pressure;Samples;Min_cycle;Max_cycle;Signal;HPM_P1;HPM_P2
2020/12/07 00:00:43;;;;;;;5.10;4.70;;;5.50;99.90;;;;;;5074757;28;20403;-55
2020/12/07 00:03:09;;;;;;;4.50;4.10;;;5.60;99.90;;;;;;5074346;28;20195;-58
2020/12/07 00:05:36;;;;;;;4.50;4.10;;;5.40;99.90;;;;;;5074481;28;20809;-59
2020/12/07 00:08:03;;;;;;;15.43;5.20;;;5.50;99.90;;;;;;5073577;28;20420;-59
2020/12/07 00:10:29;;;;;;;4.83;4.33;;;5.50;99.90;;;;;;5074101;28;20403;-55
2020/12/07 00:12:55;;;;;;;4.30;4.00;;;5.60;99.90;;;;;;5073593;28;20749;-58
2020/12/07 00:15:21;;;;;;;4.27;3.97;;;5.60;99.90;;;;;;5074317;28;20462;-55
2020/12/07 00:17:47;;;;;;;3.90;3.50;;;5.60;99.90;;;;;;5091894;28;20435;-54
2020/12/07 00:20:12;;;;;;;3.47;3.17;;;5.60;99.90;;;;;;5094656;28;20184;-54
2020/12/07 00:22:38;;;;;;;3.43;3.13;;;5.60;99.90;;;;;;5094737;28;20212;-55
2020/12/07 00:25:05;;;;;;;3.80;3.47;;;5.60;99.90;;;;;;5095068;28;20219;-59
2020/12/07 00:27:33;;;;;;;4.47;3.80;;;5.50;99.90;;;;;;5113074;28;20180;-56
2020/12/07 00:30:00;;;;;;;3.80;3.47;;;5.50;99.90;;;;;;5114945;28;20410;-57
2020/12/07 00:32:26;;;;;;;4.27;3.87;;;5.60;99.90;;;;;;5114443;28;20493;-59
2020/12/07 00:34:53;;;;;;;3.57;3.27;;;5.50;99.90;;;;;;5074681;28;20431;-58
2020/12/07 00:37:19;;;;;;;4.70;4.30;;;5.50;99.90;;;;;;5084757;28;20431;-56
2020/12/07 00:39:45;;;;;;;4.83;4.30;;;5.40;99.90;;;;;;5093119;28;20446;-54
2020/12/07 00:42:11;;;;;;;4.70;4.30;;;5.30;99.90;;;;;;5093415;28;20927;-62
2020/12/07 00:44:37;;;;;;;4.10;3.70;;;5.40;99.90;;;;;;5073526;28;20427;-59
2020/12/07 00:47:04;;;;;;;4.63;3.80;;;5.40;99.90;;;;;;5073725;28;20197;-54
2020/12/07 00:49:30;;;;;;;5.57;4.13;;;5.50;99.90;;;;;;5073884;28;20449;-54
2020/12/07 00:51:56;;;;;;;3.60;3.30;;;5.50;99.90;;;;;;5074298;28;20806;-58
2020/12/07 00:54:22;;;;;;;3.47;3.17;;;5.50;99.90;;;;;;5087585;28;20498;-59
2020/12/07 00:56:52;;;;;;;3.37;3.07;;;5.60;99.90;;;;;;5093601;28;20549;-57
2020/12/07 00:59:18;;;;;;;4.40;3.47;;;5.60;99.90;;;;;;5093331;28;20419;-57
2020/12/07 01:01:44;;;;;;;3.43;3.13;;;5.50;99.90;;;;;;5089911;28;21886;-57
2020/12/07 01:04:09;;;;;;;5.73;3.13;;;5.50;99.90;;;;;;5073558;28;20167;-62
2020/12/07 01:06:35;;;;;;;3.20;3.00;;;5.60;99.90;;;;;;5073237;28;20205;-55
2020/12/07 01:09:01;;;;;;;4.03;3.47;;;5.40;99.90;;;;;;5072311;28;20541;-57
2020/12/07 01:11:26;;;;;;;3.37;3.07;;;5.40;99.90;;;;;;5073883;28;20405;-56
2020/12/07 01:13:52;;;;;;;3.83;3.43;;;5.40;99.90;;;;;;5073583;28;20205;-58
2020/12/07 01:16:22;;;;;;;3.97;3.63;;;5.40;99.90;;;;;;5073190;28;20193;-59
2020/12/07 01:18:48;;;;;;;3.03;2.80;;;5.20;99.90;;;;;;5072180;28;20261;-57
2020/12/07 01:21:15;;;;;;;3.00;2.70;;;5.20;99.90;;;;;;5073703;28;20983;-57
2020/12/07 01:23:41;;;;;;;4.60;4.07;;;5.30;99.90;;;;;;5073137;28;20404;-56
2020/12/07 01:26:10;;;;;;;3.20;2.93;;;5.40;99.90;;;;;;5073408;28;20464;-59
2020/12/07 01:28:36;;;;;;;3.10;2.90;;;5.30;99.90;;;;;;5072627;28;20412;-58
2020/12/07 01:31:02;;;;;;;3.60;3.30;;;5.40;99.90;;;;;;5088713;28;20903;-57
2020/12/07 01:33:28;;;;;;;4.63;4.13;;;5.30;99.90;;;;;;5093461;28;20170;-54
2020/12/07 01:35:54;;;;;;;3.50;3.20;;;5.30;99.90;;;;;;5093033;28;20234;-55
2020/12/07 01:38:20;;;;;;;3.97;3.57;;;5.40;99.90;;;;;;5094109;28;20176;-58
2020/12/07 01:40:45;;;;;;;3.80;3.47;;;5.40;99.90;;;;;;5094060;28;20495;-57
2020/12/07 01:43:11;;;;;;;3.63;3.33;;;5.40;99.90;;;;;;5085720;28;20178;-60
2020/12/07 01:45:36;;;;;;;4.80;4.20;;;5.20;99.90;;;;;;5072592;28;20556;-60
2020/12/07 01:48:02;;;;;;;4.57;4.17;;;5.20;99.90;;;;;;5073623;28;20188;-62
2020/12/07 01:50:28;;;;;;;3.73;3.43;;;5.20;99.90;;;;;;5072556;28;20177;-60
2020/12/07 01:52:54;;;;;;;4.27;3.30;;;5.10;99.90;;;;;;5072844;28;20410;-60
2020/12/07 01:55:20;;;;;;;4.60;4.10;;;5.00;99.90;;;;;;5073249;28;20173;-60
2020/12/07 01:57:46;;;;;;;4.23;3.83;;;5.20;99.90;;;;;;5072707;28;20214;-59
2020/12/07 02:00:11;;;;;;;3.97;3.57;;;5.20;99.90;;;;;;5072895;28;20787;-60
2020/12/07 02:02:37;;;;;;;5.63;3.70;;;5.10;99.90;;;;;;5073116;28;20727;-58
2020/12/07 02:05:03;;;;;;;4.53;4.23;;;5.30;99.90;;;;;;5072076;28;20174;-59
2020/12/07 02:07:28;;;;;;;4.40;4.00;;;5.00;99.90;;;;;;5071591;28;20240;-59
2020/12/07 02:09:54;;;;;;;4.30;3.90;;;4.90;99.90;;;;;;5072441;28;20178;-59
2020/12/07 02:12:20;;;;;;;4.50;4.10;;;5.00;99.90;;;;;;5072819;28;20168;-59
2020/12/07 02:14:45;;;;;;;5.37;4.87;;;5.10;99.90;;;;;;5071604;28;20217;-58
2020/12/07 02:17:11;;;;;;;4.80;4.40;;;5.10;99.90;;;;;;5072785;28;20197;-56
2020/12/07 02:19:36;;;;;;;4.90;4.50;;;5.10;99.90;;;;;;5071408;28;20635;-59
2020/12/07 02:22:02;;;;;;;5.50;4.90;;;5.10;99.90;;;;;;5072727;28;20627;-56
2020/12/07 02:24:27;;;;;;;5.60;4.90;;;5.10;99.90;;;;;;5071898;28;20174;-58
2020/12/07 02:26:53;;;;;;;4.90;4.50;;;5.00;99.90;;;;;;5071879;28;20666;-58
2020/12/07 02:29:19;;;;;;;5.20;4.67;;;5.10;99.90;;;;;;5073949;28;20173;-59
2020/12/07 02:31:44;;;;;;;4.90;4.53;;;5.00;99.90;;;;;;5094056;28;20168;-56
2020/12/07 02:34:10;;;;;;;4.40;4.00;;;4.90;99.90;;;;;;5072637;28;20558;-59
2020/12/07 02:36:35;;;;;;;4.40;4.00;;;4.90;99.90;;;;;;5075334;28;20194;-58
2020/12/07 02:39:01;;;;;;;4.20;3.80;;;5.00;99.90;;;;;;5076115;28;20170;-59
2020/12/07 02:41:27;;;;;;;4.60;4.20;;;5.00;99.90;;;;;;5076378;28;20174;-59
2020/12/07 02:43:52;;;;;;;5.60;4.20;;;5.00;99.90;;;;;;5076563;28;20472;-57
2020/12/07 02:46:18;;;;;;;4.13;3.83;;;4.90;99.90;;;;;;5075802;28;20218;-58
2020/12/07 02:48:43;;;;;;;3.87;3.57;;;4.90;99.90;;;;;;5075445;28;20216;-55
2020/12/07 02:51:09;;;;;;;4.17;3.77;;;4.80;99.90;;;;;;5075843;28;20717;-59
2020/12/07 02:53:35;;;;;;;3.17;2.97;;;4.90;99.90;;;;;;5074171;28;20170;-56
2020/12/07 02:56:00;;;;;;;6.07;4.20;;;4.70;99.90;;;;;;5075498;28;20193;-58
2020/12/07 02:58:26;;;;;;;4.03;3.73;;;4.60;99.90;;;;;;5075852;28;20170;-58
2020/12/07 03:00:51;;;;;;;4.10;3.70;;;4.70;99.90;;;;;;5074086;28;20524;-59
2020/12/07 03:03:17;;;;;;;3.67;3.37;;;4.70;99.90;;;;;;5075973;28;20178;-57
2020/12/07 03:05:42;;;;;;;3.43;3.23;;;4.60;99.90;;;;;;5075440;28;20605;-55
2020/12/07 03:08:08;;;;;;;4.30;3.40;;;4.60;99.90;;;;;;5075533;28;20166;-55
2020/12/07 03:10:33;;;;;;;4.30;4.00;;;4.60;99.90;;;;;;5075249;28;20249;-54
2020/12/07 03:12:59;;;;;;;4.47;4.07;;;4.60;99.90;;;;;;5075983;28;20177;-55
2020/12/07 03:15:24;;;;;;;4.73;4.33;;;4.60;99.90;;;;;;5075072;28;20173;-54
2020/12/07 03:17:50;;;;;;;4.37;4.03;;;4.50;99.90;;;;;;5075369;28;20213;-55
2020/12/07 03:20:16;;;;;;;4.50;4.10;;;4.50;99.90;;;;;;5075271;28;20216;-55
2020/12/07 03:22:41;;;;;;;4.70;4.30;;;4.50;99.90;;;;;;5075333;28;20166;-57
2020/12/07 03:25:07;;;;;;;3.57;3.27;;;4.50;99.90;;;;;;5074866;28;20558;-54
2020/12/07 03:27:32;;;;;;;4.20;3.80;;;4.60;99.90;;;;;;5075052;28;20281;-55
2020/12/07 03:29:58;;;;;;;4.37;3.97;;;4.70;99.90;;;;;;5081756;28;20693;-55
2020/12/07 03:32:23;;;;;;;4.37;3.77;;;4.80;99.90;;;;;;5095720;28;20177;-54
2020/12/07 03:34:49;;;;;;;4.30;3.90;;;4.70;99.90;;;;;;5095350;28;20181;-54
2020/12/07 03:37:14;;;;;;;4.20;3.90;;;4.60;99.90;;;;;;5095138;28;20201;-55
2020/12/07 03:39:40;;;;;;;3.93;3.63;;;4.60;99.90;;;;;;5076542;28;20174;-55
2020/12/07 03:42:05;;;;;;;3.60;3.30;;;4.60;99.90;;;;;;5075551;28;20705;-56
2020/12/07 03:44:31;;;;;;;3.27;3.07;;;4.70;99.90;;;;;;5075061;28;20707;-58
2020/12/07 03:46:57;;;;;;;3.87;3.57;;;4.80;99.90;;;;;;5086287;28;20724;-57
2020/12/07 03:49:22;;;;;;;5.60;3.57;;;4.70;99.90;;;;;;5095229;28;20165;-54
2020/12/07 03:51:48;;;;;;;4.60;4.20;;;4.70;99.90;;;;;;5095318;28;20165;-57
2020/12/07 03:54:13;;;;;;;4.10;3.77;;;4.70;99.90;;;;;;5094802;28;20173;-59
2020/12/07 03:56:39;;;;;;;3.80;3.50;;;4.70;99.90;;;;;;5094986;28;20610;-59
2020/12/07 03:59:05;;;;;;;3.80;3.50;;;4.60;99.90;;;;;;5094618;28;20165;-57
2020/12/07 04:01:30;;;;;;;4.20;3.90;;;4.60;99.90;;;;;;5094917;28;20169;-59
2020/12/07 04:04:01;;;;;;;4.47;4.07;;;4.70;99.90;;;;;;5086099;28;20220;-61
2020/12/07 04:06:40;;;;;;;3.83;3.53;;;4.80;99.90;;;;;;5074897;28;20198;-59
2020/12/07 04:09:05;;;;;;;4.10;3.70;;;4.80;99.90;;;;;;5073402;28;20427;-60
2020/12/07 04:11:31;;;;;;;3.80;3.50;;;4.80;99.90;;;;;;5074317;28;20821;-59
2020/12/07 04:13:56;;;;;;;3.43;3.23;;;4.90;99.90;;;;;;5075051;28;20197;-61
2020/12/07 04:16:26;;;;;;;4.03;3.63;;;4.90;99.90;;;;;;5074188;28;20194;-59
2020/12/07 04:18:51;;;;;;;3.73;3.43;;;5.00;99.90;;;;;;5073798;28;20634;-59
2020/12/07 04:21:17;;;;;;;3.87;3.50;;;5.00;99.90;;;;;;5074172;28;20427;-59
2020/12/07 04:23:42;;;;;;;5.27;4.27;;;5.00;99.90;;;;;;5080881;28;20320;-59
2020/12/07 04:26:08;;;;;;;3.70;3.40;;;5.00;99.90;;;;;;5074567;28;20232;-58
2020/12/07 04:28:33;;;;;;;3.97;3.63;;;5.10;99.90;;;;;;5074942;28;20166;-57
2020/12/07 04:30:59;;;;;;;5.03;4.17;;;5.10;99.90;;;;;;5082592;28;20169;-59
2020/12/07 04:33:25;;;;;;;3.70;3.30;;;5.20;99.90;;;;;;5094484;28;20169;-59
2020/12/07 04:35:50;;;;;;;5.70;3.50;;;5.30;99.90;;;;;;5094977;28;20629;-58
2020/12/07 04:38:16;;;;;;;3.60;3.30;;;5.20;99.90;;;;;;5086869;28;20186;-56
2020/12/07 04:40:41;;;;;;;4.70;4.17;;;5.20;99.90;;;;;;5077192;28;20177;-57
2020/12/07 04:43:07;;;;;;;4.63;4.23;;;5.30;99.90;;;;;;5076993;28;20186;-58
2020/12/07 04:45:33;;;;;;;6.20;4.47;;;5.20;99.90;;;;;;5075549;28;20201;-55
2020/12/07 04:48:00;;;;;;;4.03;3.73;;;5.40;99.90;;;;;;5075237;28;20177;-56
2020/12/07 04:50:29;;;;;;;3.50;3.20;;;5.10;99.90;;;;;;5075180;28;20223;-55
2020/12/07 04:52:56;;;;;;;3.77;3.47;;;5.20;99.90;;;;;;5074469;28;20892;-57
2020/12/07 04:55:22;;;;;;;4.20;3.80;;;5.40;99.90;;;;;;5074742;28;20415;-57
2020/12/07 04:57:49;;;;;;;3.53;3.23;;;5.30;99.90;;;;;;5074753;28;20421;-57
2020/12/07 05:00:15;;;;;;;4.80;4.40;;;5.30;99.90;;;;;;5075886;28;20637;-55
2020/12/07 05:02:41;;;;;;;3.87;3.57;;;5.20;99.90;;;;;;5074217;28;20503;-57
2020/12/07 05:05:07;;;;;;;5.10;3.67;;;5.10;99.90;;;;;;5075294;28;20540;-55
2020/12/07 05:07:34;;;;;;;4.37;3.97;;;5.10;99.90;;;;;;5074802;28;20178;-58
2020/12/07 05:10:06;;;;;;;4.50;4.10;;;5.30;99.90;;;;;;5075433;28;20404;-55
2020/12/07 05:12:38;;;;;;;4.03;3.70;;;5.30;99.90;;;;;;5075564;28;20393;-58
2020/12/07 05:15:15;;;;;;;3.27;2.97;;;5.50;99.90;;;;;;5072921;28;20979;-58
2020/12/07 05:17:42;;;;;;;3.87;3.53;;;5.40;99.90;;;;;;5072868;28;20507;-59
2020/12/07 05:20:07;;;;;;;4.17;3.73;;;5.50;99.90;;;;;;5073227;28;20424;-57
2020/12/07 05:22:36;;;;;;;3.77;3.47;;;5.60;99.90;;;;;;5078369;28;20895;-57
2020/12/07 05:25:06;;;;;;;4.30;4.00;;;5.70;99.90;;;;;;5093860;28;20219;-59
2020/12/07 05:27:34;;;;;;;3.93;3.63;;;5.70;99.90;;;;;;5093456;28;20431;-58
2020/12/07 05:30:18;;;;;;;4.60;4.20;;;5.50;99.90;;;;;;5093265;28;20403;-57
2020/12/07 05:32:44;;;;;;;5.17;4.60;;;5.30;99.90;;;;;;5073968;28;20418;-58
2020/12/07 05:35:09;;;;;;;3.40;3.20;;;5.40;99.90;;;;;;5073344;28;20472;-57
2020/12/07 05:37:37;;;;;;;4.40;4.10;;;5.60;99.90;;;;;;5073185;28;20181;-55
2020/12/07 05:40:08;;;;;;;5.20;4.80;;;5.60;99.90;;;;;;5073411;28;20166;-59
2020/12/07 05:42:34;;;;;;;4.67;4.27;;;5.70;99.90;;;;;;5073060;28;20387;-56
2020/12/07 05:45:01;;;;;;;4.90;4.50;;;5.70;99.90;;;;;;5072001;28;20412;-58
2020/12/07 05:47:27;;;;;;;5.60;4.67;;;5.60;99.90;;;;;;5072687;28;20627;-59
2020/12/07 05:49:54;;;;;;;5.87;5.10;;;5.60;99.90;;;;;;5073175;28;20400;-58
2020/12/07 05:52:40;;;;;;;4.53;4.13;;;5.70;99.90;;;;;;5072471;28;20169;-59
2020/12/07 05:55:07;;;;;;;5.83;4.50;;;5.70;99.90;;;;;;5073184;28;20866;-59
2020/12/07 05:57:52;;;;;;;4.90;4.47;;;5.70;99.90;;;;;;5072862;28;20452;-57
2020/12/07 06:00:23;;;;;;;7.57;4.60;;;5.70;99.90;;;;;;5074463;28;20411;-60
2020/12/07 06:02:51;;;;;;;5.00;4.60;;;5.60;99.90;;;;;;5081999;28;20400;-60
2020/12/07 06:05:18;;;;;;;5.20;4.70;;;5.60;99.90;;;;;;5076835;28;20434;-61
2020/12/07 06:07:50;;;;;;;5.07;4.57;;;5.60;99.90;;;;;;5093603;28;20790;-61
2020/12/07 06:10:17;;;;;;;5.00;4.50;;;5.60;99.90;;;;;;5094377;28;20371;-60
2020/12/07 06:12:48;;;;;;;5.40;4.90;;;5.60;99.90;;;;;;5076424;28;20404;-60
2020/12/07 06:15:19;;;;;;;4.53;4.13;;;5.50;99.90;;;;;;5076523;28;20408;-60
2020/12/07 06:17:47;;;;;;;8.40;6.27;;;5.60;99.90;;;;;;5075932;28;20429;-60
2020/12/07 06:20:25;;;;;;;4.97;4.57;;;5.50;99.90;;;;;;5076530;28;20991;-60
2020/12/07 06:22:56;;;;;;;8.50;5.50;;;5.40;99.90;;;;;;5076263;28;20384;-60
2020/12/07 06:25:25;;;;;;;5.77;5.17;;;5.30;99.90;;;;;;5075579;28;20442;-59
2020/12/07 06:27:51;;;;;;;7.40;5.80;;;5.40;99.90;;;;;;5076139;28;20424;-59
2020/12/07 06:30:19;;;;;;;7.93;7.13;;;5.40;99.90;;;;;;5076508;28;20396;-60
2020/12/07 06:32:51;;;;;;;10.43;8.53;;;5.30;99.90;;;;;;5074232;28;20174;-60
2020/12/07 06:35:18;;;;;;;10.60;8.43;;;5.20;99.90;;;;;;5076844;28;20479;-59
2020/12/07 06:37:49;;;;;;;11.30;8.03;;;5.00;99.90;;;;;;5076351;28;20424;-60
2020/12/07 06:40:17;;;;;;;9.50;8.50;;;4.80;99.90;;;;;;5076631;28;20424;-60
2020/12/07 06:42:45;;;;;;;8.90;8.00;;;4.90;99.90;;;;;;5076011;28;20392;-60
2020/12/07 06:45:30;;;;;;;8.87;7.90;;;4.90;99.90;;;;;;5075870;28;20396;-59
2020/12/07 06:47:56;;;;;;;7.70;6.90;;;5.00;99.90;;;;;;5075214;28;20873;-59
2020/12/07 06:50:27;;;;;;;8.10;7.40;;;5.00;99.90;;;;;;5076009;28;20416;-59
2020/12/07 06:52:53;;;;;;;7.47;6.70;;;5.00;99.90;;;;;;5074421;28;20166;-60
2020/12/07 06:55:18;;;;;;;8.63;7.07;;;5.00;99.90;;;;;;5077594;28;20411;-56
2020/12/07 06:57:49;;;;;;;9.07;7.20;;;5.00;99.90;;;;;;5076304;28;20212;-61
2020/12/07 07:00:22;;;;;;;7.53;6.33;;;5.10;99.90;;;;;;5075919;28;20166;-61
2020/12/07 07:02:50;;;;;;;7.17;6.30;;;5.10;99.90;;;;;;5073499;28;20408;-61
2020/12/07 07:05:18;;;;;;;7.60;6.70;;;5.20;99.90;;;;;;5075593;28;20454;-61
2020/12/07 07:07:44;;;;;;;8.23;7.00;;;5.20;99.90;;;;;;5075806;28;20424;-61
2020/12/07 07:10:11;;;;;;;7.83;7.07;;;5.10;99.90;;;;;;5076011;28;20774;-59
2020/12/07 07:12:39;;;;;;;8.30;7.50;;;5.10;99.90;;;;;;5074739;28;20435;-59
2020/12/07 07:15:05;;;;;;;11.20;8.80;;;5.10;99.90;;;;;;5075666;28;20436;-58
2020/12/07 07:17:33;;;;;;;7.87;7.10;;;5.20;99.90;;;;;;5074965;28;20514;-59
2020/12/07 07:20:01;;;;;;;8.70;7.80;;;5.30;99.90;;;;;;5075350;28;20427;-60
2020/12/07 07:22:27;;;;;;;10.97;8.40;;;5.30;99.90;;;;;;5074877;28;20408;-61
2020/12/07 07:30:30;;;;;;;7.67;6.87;;;5.20;99.90;;;;;;5053365;28;20417;-60
2020/12/07 07:32:56;;;;;;;7.70;7.00;;;5.20;99.90;;;;;;5070452;28;20416;-60
2020/12/07 07:35:24;;;;;;;10.67;8.93;;;5.30;99.90;;;;;;5075013;28;20907;-60
2020/12/07 07:37:50;;;;;;;8.77;7.07;;;5.40;99.90;;;;;;5074323;28;20416;-59
2020/12/07 07:40:23;;;;;;;8.37;7.50;;;5.50;99.90;;;;;;5075286;28;20955;-56
2020/12/07 07:43:11;;;;;;;9.37;7.30;;;5.40;99.90;;;;;;5074831;28;20534;-58
2020/12/07 07:45:38;;;;;;;9.00;7.50;;;5.30;99.90;;;;;;5074572;28;20670;-59
2020/12/07 07:48:14;;;;;;;7.80;6.40;;;5.40;99.90;;;;;;5072960;28;20518;-60
2020/12/07 08:15:58;;;;;;;5.37;4.83;;;6.00;99.90;;;;;;5074419;28;20481;-57
2020/12/07 08:18:30;;;;;;;6.13;5.53;;;6.20;99.90;;;;;;5074665;28;20420;-57
2020/12/07 08:21:00;;;;;;;5.43;4.93;;;6.20;99.90;;;;;;5074045;28;20677;-59
2020/12/07 08:23:28;;;;;;;5.40;4.90;;;6.10;99.90;;;;;;5074050;28;20440;-59
2020/12/07 08:25:54;;;;;;;5.93;4.43;;;6.20;99.90;;;;;;5073256;28;20474;-59
2020/12/07 08:28:33;;;;;;;5.50;4.93;;;6.30;99.90;;;;;;5074052;28;20404;-60
2020/12/07 08:31:14;;;;;;;5.50;5.00;;;6.20;99.90;;;;;;5089655;28;20524;-58
2020/12/07 08:34:01;;;;;;;5.70;5.20;;;6.20;99.90;;;;;;5092115;28;20403;-59
2020/12/07 08:36:32;;;;;;;10.00;8.93;;;6.20;99.90;;;;;;5094197;28;20471;-58
2020/12/07 08:38:58;;;;;;;8.40;6.93;;;6.30;99.90;;;;;;5083778;28;20797;-57
2020/12/07 08:41:28;;;;;;;16.23;14.10;;;6.30;99.90;;;;;;5079611;28;20401;-57
2020/12/07 08:43:56;;;;;;;6.87;5.53;;;6.30;99.90;;;;;;5076546;28;20435;-58
2020/12/07 08:46:25;;;;;;;6.50;5.90;;;6.30;99.90;;;;;;5073172;28;20875;-58
2020/12/07 08:48:51;;;;;;;5.73;5.13;;;6.30;99.90;;;;;;5074006;28;20440;-59
2020/12/07 08:51:22;;;;;;;7.20;5.43;;;6.20;99.90;;;;;;5073450;28;20977;-59
2020/12/07 08:53:48;;;;;;;4.83;4.33;;;6.20;99.90;;;;;;5078621;28;20415;-58
2020/12/07 08:56:14;;;;;;;6.33;5.20;;;6.00;99.90;;;;;;5077916;28;20835;-55
2020/12/07 08:58:39;;;;;;;5.47;4.70;;;5.80;99.90;;;;;;5073795;28;20465;-54
2020/12/07 09:01:09;;;;;;;6.47;5.47;;;6.00;99.90;;;;;;5073744;28;20408;-57
2020/12/07 09:03:36;;;;;;;5.30;4.80;;;6.10;99.90;;;;;;5073350;28;20230;-56
2020/12/07 09:06:03;;;;;;;5.07;4.67;;;6.00;99.90;;;;;;5073675;28;20459;-54
2020/12/07 09:08:29;;;;;;;6.13;5.53;;;6.10;99.90;;;;;;5073885;28;20430;-56
2020/12/07 09:10:54;;;;;;;7.43;5.67;;;6.10;99.90;;;;;;5074178;28;20405;-53
2020/12/07 09:13:21;;;;;;;4.63;4.23;;;6.00;99.90;;;;;;5073410;28;20188;-56
2020/12/07 09:15:47;;;;;;;5.50;5.00;;;6.00;99.90;;;;;;5072345;28;20211;-52
2020/12/07 09:18:13;;;;;;;5.00;4.60;;;6.10;99.90;;;;;;5073515;28;20477;-57
2020/12/07 09:20:38;;;;;;;5.40;4.87;;;6.30;99.90;;;;;;5073690;28;20181;-52
2020/12/07 09:23:04;;;;;;;9.23;5.27;;;6.10;99.90;;;;;;5073610;28;20718;-54
2020/12/07 09:25:29;;;;;;;5.73;4.70;;;6.20;99.90;;;;;;5072579;28;20215;-55
2020/12/07 09:27:55;;;;;;;5.87;4.90;;;6.20;99.90;;;;;;5073325;28;20169;-54
2020/12/07 09:30:20;;;;;;;5.20;4.70;;;6.30;99.90;;;;;;5073313;28;20166;-58
2020/12/07 09:32:46;;;;;;;12.77;6.50;;;6.30;99.90;;;;;;5073460;28;20190;-55
2020/12/07 09:35:13;;;;;;;6.83;5.40;;;6.40;99.90;;;;;;5073629;28;20196;-54
2020/12/07 09:37:39;;;;;;;6.00;5.50;;;6.50;99.90;;;;;;5073303;28;20665;-54
2020/12/07 09:40:06;;;;;;;6.60;4.87;;;6.60;99.90;;;;;;5073224;28;20403;-56
2020/12/07 09:42:32;;;;;;;5.10;4.70;;;6.70;99.90;;;;;;5073599;28;20404;-53
2020/12/07 09:44:58;;;;;;;5.43;4.93;;;6.60;99.90;;;;;;5075103;28;20418;-58
2020/12/07 09:47:24;;;;;;;5.00;4.50;;;6.50;99.90;;;;;;5076936;28;20455;-54
2020/12/07 09:49:49;;;;;;;6.00;5.30;;;6.60;99.90;;;;;;5077670;28;20172;-57
2020/12/07 09:52:15;;;;;;;5.17;4.70;;;6.60;99.90;;;;;;5076409;28;20495;-55
2020/12/07 09:54:41;;;;;;;5.43;4.93;;;6.60;99.90;;;;;;5076998;28;20630;-53
2020/12/07 09:57:06;;;;;;;5.70;4.83;;;6.80;99.90;;;;;;5077050;28;20201;-54
2020/12/07 09:59:33;;;;;;;5.20;4.33;;;6.80;99.90;;;;;;5077028;28;20162;-57
2020/12/07 10:02:00;;;;;;;5.13;4.73;;;6.90;99.90;;;;;;5077008;28;20200;-56
2020/12/07 10:04:25;;;;;;;5.37;4.87;;;6.80;99.90;;;;;;5077049;28;20418;-53
2020/12/07 10:06:52;;;;;;;4.83;4.40;;;7.00;99.90;;;;;;5087852;28;20451;-56
2020/12/07 10:09:17;;;;;;;3.90;3.60;;;7.00;99.90;;;;;;5097667;28;20173;-56
2020/12/07 10:11:43;;;;;;;6.93;4.13;;;7.20;99.90;;;;;;5097180;28;20410;-58
2020/12/07 10:14:08;;;;;;;5.17;4.30;;;7.00;99.90;;;;;;5096966;28;20237;-53
2020/12/07 10:16:35;;;;;;;4.87;4.37;;;7.00;99.90;;;;;;5096491;28;20185;-56
2020/12/07 10:19:00;;;;;;;6.43;4.33;;;7.00;99.90;;;;;;5086852;28;20174;-56
2020/12/07 10:21:26;;;;;;;4.60;4.20;;;7.20;99.90;;;;;;5076781;28;20449;-56
2020/12/07 10:23:52;;;;;;;3.93;3.63;;;7.30;99.90;;;;;;5075711;28;20550;-53
2020/12/07 10:26:27;;;;;;;5.37;4.80;;;7.40;99.90;;;;;;5076083;28;20452;-54
2020/12/07 10:28:52;;;;;;;3.77;3.47;;;7.40;99.90;;;;;;5076319;28;20154;-57
2020/12/07 10:31:19;;;;;;;4.03;3.63;;;7.30;99.90;;;;;;5076742;28;20407;-55
2020/12/07 10:33:45;;;;;;;3.97;3.37;;;7.30;99.90;;;;;;5075420;28;20173;-54
2020/12/07 10:36:11;;;;;;;4.10;3.80;;;7.30;99.90;;;;;;5076076;28;20432;-52
2020/12/07 10:38:37;;;;;;;4.23;3.83;;;7.60;99.90;;;;;;5075192;28;20423;-60
2020/12/07 10:41:02;;;;;;;4.10;3.70;;;7.60;99.90;;;;;;5075139;28;20181;-56
2020/12/07 10:43:30;;;;;;;5.37;4.50;;;7.60;99.90;;;;;;5076763;28;20185;-56
2020/12/07 10:45:55;;;;;;;3.77;3.47;;;7.70;99.90;;;;;;5076512;28;20697;-55
2020/12/07 10:48:21;;;;;;;4.63;4.20;;;7.50;99.90;;;;;;5076492;28;20416;-58
2020/12/07 10:50:47;;;;;;;4.30;4.00;;;7.80;99.90;;;;;;5076321;28;20192;-55
2020/12/07 10:53:12;;;;;;;3.90;3.50;;;8.90;99.90;;;;;;5076519;28;20171;-57
2020/12/07 10:55:38;;;;;;;4.20;3.80;;;;;;;;;;5074381;28;20173;-57
2020/12/07 10:58:04;;;;;;;3.90;3.50;;;12.20;99.90;;;;;;5075896;28;20175;-59
2020/12/07 11:00:29;;;;;;;3.67;3.37;;;12.70;99.90;;;;;;5076806;28;20404;-56
2020/12/07 11:02:55;;;;;;;3.93;3.37;;;13.10;99.90;;;;;;5076297;28;20174;-56
2020/12/07 11:05:20;;;;;;;4.30;3.90;;;13.30;99.90;;;;;;5076321;28;20180;-55
2020/12/07 11:07:47;;;;;;;3.37;3.07;;;12.50;99.90;;;;;;5075971;28;20501;-57
2020/12/07 11:10:13;;;;;;;3.80;3.50;;;11.90;99.90;;;;;;5075990;28;20169;-56
2020/12/07 11:12:42;;;;;;;6.33;3.77;;;10.90;99.90;;;;;;5084768;28;20485;-54
2020/12/07 11:15:07;;;;;;;4.30;3.90;;;10.60;99.90;;;;;;5075750;28;20252;-54
2020/12/07 11:17:33;;;;;;;3.60;3.30;;;10.00;99.90;;;;;;5075419;28;20465;-56
2020/12/07 11:19:58;;;;;;;3.20;2.90;;;9.80;99.90;;;;;;5075251;28;20190;-50
2020/12/07 11:22:24;;;;;;;4.20;3.80;;;9.50;99.90;;;;;;5075654;28;20178;-54
2020/12/07 11:24:50;;;;;;;4.63;3.57;;;9.40;99.90;;;;;;5074832;28;20256;-54
2020/12/07 11:27:15;;;;;;;3.17;2.90;;;9.80;99.90;;;;;;5073763;28;20201;-55
2020/12/07 11:29:41;;;;;;;3.60;3.00;;;10.50;99.90;;;;;;5074327;28;20173;-54
2020/12/07 11:32:06;;;;;;;3.27;2.97;;;10.50;99.90;;;;;;5074108;28;20247;-56
2020/12/07 11:34:32;;;;;;;3.20;2.90;;;11.70;99.90;;;;;;5075596;28;20530;-55
2020/12/07 11:36:57;;;;;;;3.60;2.73;;;12.90;99.90;;;;;;5075129;28;20586;-53
2020/12/07 11:39:48;;;;;;;3.73;3.43;;;14.30;99.50;;;;;;5075616;28;20185;-53
2020/12/07 11:42:21;;;;;;;3.50;2.93;;;14.00;97.60;;;;;;5075126;28;20162;-54
2020/12/07 11:44:47;;;;;;;3.53;3.23;;;11.90;99.60;;;;;;5075318;28;20393;-55
2020/12/07 11:47:14;;;;;;;3.70;3.40;;;10.80;99.90;;;;;;5074581;28;20490;-58
2020/12/07 11:49:40;;;;;;;3.10;2.83;;;10.70;99.90;;;;;;5074418;28;20312;-53
2020/12/07 11:52:06;;;;;;;3.60;3.30;;;10.50;99.90;;;;;;5074972;28;20915;-55
2020/12/07 11:54:33;;;;;;;3.50;3.20;;;10.20;99.90;;;;;;5074289;28;21002;-53
2020/12/07 11:57:03;;;;;;;3.60;3.30;;;10.10;99.90;;;;;;5074646;28;20425;-54
2020/12/07 11:59:29;;;;;;;3.50;3.23;;;10.00;99.90;;;;;;5074565;28;20921;-53
2020/12/07 12:01:54;;;;;;;4.10;3.70;;;9.80;99.90;;;;;;5074699;28;20414;-53
2020/12/07 12:04:20;;;;;;;4.20;3.83;;;9.40;99.90;;;;;;5073513;28;20203;-54
2020/12/07 12:06:45;;;;;;;3.53;3.23;;;9.40;99.90;;;;;;5073972;28;20215;-56
2020/12/07 12:09:13;;;;;;;3.57;3.23;;;9.30;99.90;;;;;;5072329;28;20815;-58
2020/12/07 12:11:39;;;;;;;3.80;3.50;;;9.50;99.90;;;;;;5073349;28;20718;-53
2020/12/07 12:14:07;;;;;;;3.70;3.40;;;9.30;99.90;;;;;;5089499;28;20490;-53
2020/12/07 12:16:34;;;;;;;3.73;3.40;;;9.00;99.90;;;;;;5094775;28;20432;-58
2020/12/07 12:19:00;;;;;;;3.17;2.87;;;8.80;99.90;;;;;;5094715;28;20483;-56
2020/12/07 12:21:28;;;;;;;3.30;3.00;;;8.20;99.90;;;;;;5094719;28;20412;-57
2020/12/07 12:23:54;;;;;;;3.40;3.10;;;8.50;99.90;;;;;;5090936;28;20437;-57
2020/12/07 12:26:20;;;;;;;3.33;3.03;;;8.70;99.90;;;;;;5074062;28;20838;-57
2020/12/07 12:28:47;;;;;;;4.57;4.17;;;8.80;99.90;;;;;;5073965;28;20420;-54
2020/12/07 12:31:13;;;;;;;3.77;3.47;;;8.50;99.90;;;;;;5073824;28;20824;-57
2020/12/07 12:33:39;;;;;;;3.13;2.87;;;8.40;99.90;;;;;;5073248;28;20420;-56
2020/12/07 12:36:05;;;;;;;3.77;3.27;;;8.40;99.90;;;;;;5074094;28;20428;-58
2020/12/07 12:38:31;;;;;;;3.73;3.40;;;8.40;99.90;;;;;;5073736;28;20408;-56
2020/12/07 12:40:58;;;;;;;4.47;4.07;;;8.10;99.90;;;;;;5074015;28;20409;-55
2020/12/07 12:43:24;;;;;;;4.23;3.60;;;8.00;99.90;;;;;;5073068;28;20456;-56
2020/12/07 12:45:49;;;;;;;4.83;4.40;;;7.90;99.90;;;;;;5073860;28;20543;-55
2020/12/07 12:48:15;;;;;;;4.70;4.20;;;7.80;99.90;;;;;;5073719;28;20847;-56
2020/12/07 12:50:40;;;;;;;7.10;4.20;;;7.70;99.90;;;;;;5074240;28;20170;-56
2020/12/07 12:53:06;;;;;;;4.07;3.67;;;7.60;99.90;;;;;;5073623;28;20211;-57
2020/12/07 12:55:32;;;;;;;5.53;4.30;;;7.40;99.90;;;;;;5072156;28;20261;-56
2020/12/07 12:57:57;;;;;;;3.60;3.30;;;7.50;99.90;;;;;;5073327;28;20166;-56
2020/12/07 13:00:23;;;;;;;3.97;3.67;;;7.30;99.90;;;;;;5073491;28;20173;-55
2020/12/07 13:02:48;;;;;;;4.57;4.07;;;7.30;99.90;;;;;;5073210;28;20247;-54
2020/12/07 13:05:14;;;;;;;4.07;3.77;;;7.10;99.90;;;;;;5073944;28;20223;-53
2020/12/07 13:07:41;;;;;;;4.00;3.57;;;7.10;99.90;;;;;;5073983;28;20205;-57
2020/12/07 13:10:07;;;;;;;4.77;4.30;;;7.30;99.90;;;;;;5073613;28;20178;-57
2020/12/07 13:12:32;;;;;;;3.87;3.50;;;7.10;99.90;;;;;;5074172;28;20465;-52
2020/12/07 13:14:58;;;;;;;3.90;3.53;;;7.10;99.90;;;;;;5073277;28;20237;-56
2020/12/07 13:17:27;;;;;;;4.20;3.90;;;7.10;99.90;;;;;;5073616;28;20201;-55
2020/12/07 13:19:53;;;;;;;4.80;3.93;;;7.30;99.90;;;;;;5072756;28;20249;-55
2020/12/07 13:24:57;;;;;;;3.93;3.53;;;7.40;99.90;;;;;;5077366;28;20462;-53
2020/12/07 13:27:43;;;;;;;3.80;3.50;;;7.60;99.90;;;;;;5083794;28;21152;-53